createdAt,value
2018-07-26T00:00:25.071Z,100.00
2018-07-26T00:02:53.547Z,100.00
2018-07-26T00:05:21.977Z,100.00
2018-07-26T00:07:50.453Z,100.00
2018-07-26T00:10:18.928Z,100.00
2018-07-26T00:12:47.499Z,100.00
2018-07-26T00:15:18.937Z,100.00
2018-07-26T00:17:47.346Z,100.00
2018-07-26T00:20:15.800Z,100.00
2018-07-26T00:22:44.252Z,100.00
2018-07-26T00:25:12.688Z,100.00
2018-07-26T00:27:41.185Z,100.00
2018-07-26T00:30:09.635Z,100.00
2018-07-26T00:32:38.118Z,100.00
2018-07-26T00:35:06.584Z,100.00
2018-07-26T00:37:35.014Z,100.00
2018-07-26T00:40:03.570Z,100.00
2018-07-26T00:42:32.034Z,100.00
2018-07-26T00:45:00.503Z,100.00
2018-07-26T00:47:29.007Z,100.00
2018-07-26T00:49:57.684Z,100.00
2018-07-26T00:52:26.126Z,100.00
2018-07-26T00:54:54.547Z,100.00
2018-07-26T00:57:23.043Z,100.00
2018-07-26T00:59:51.665Z,100.00
2018-07-26T01:02:20.352Z,100.00
2018-07-26T01:04:48.850Z,100.00
2018-07-26T01:07:17.448Z,100.00
2018-07-26T01:09:46.092Z,100.00
2018-07-26T01:12:14.543Z,100.00
2018-07-26T01:14:42.976Z,100.00
2018-07-26T01:17:11.861Z,100.00
2018-07-26T01:19:40.315Z,100.00
2018-07-26T01:22:08.807Z,100.00
2018-07-26T01:24:37.214Z,100.00
2018-07-26T01:27:05.870Z,100.00
2018-07-26T01:29:34.344Z,100.00
2018-07-26T01:32:02.796Z,100.00
2018-07-26T01:34:31.310Z,100.00
2018-07-26T01:36:59.765Z,100.00
2018-07-26T01:39:28.231Z,100.00
2018-07-26T01:41:56.686Z,100.00
2018-07-26T01:44:26.182Z,100.00
2018-07-26T01:46:54.618Z,100.00
2018-07-26T01:49:23.079Z,100.00
2018-07-26T01:51:51.485Z,100.00
2018-07-26T01:54:19.890Z,100.00
2018-07-26T01:56:49.227Z,100.00
2018-07-26T01:59:17.655Z,100.00
2018-07-26T02:01:46.285Z,100.00
2018-07-26T02:04:14.693Z,100.00
2018-07-26T02:06:43.205Z,100.00
2018-07-26T02:09:12.134Z,100.00
2018-07-26T02:11:40.824Z,100.00
2018-07-26T02:14:14.596Z,100.00
2018-07-26T02:16:43.027Z,100.00
2018-07-26T02:19:11.508Z,100.00
2018-07-26T02:21:39.962Z,100.00
2018-07-26T02:24:08.412Z,100.00
2018-07-26T02:26:36.918Z,100.00
2018-07-26T02:29:05.752Z,100.00
2018-07-26T02:31:34.204Z,100.00
2018-07-26T02:34:02.714Z,100.00
2018-07-26T02:36:31.266Z,100.00
2018-07-26T02:38:59.739Z,100.00
2018-07-26T02:41:28.381Z,100.00
2018-07-26T02:43:56.901Z,100.00
2018-07-26T02:46:25.347Z,100.00
2018-07-26T02:48:53.785Z,100.00
2018-07-26T02:51:22.455Z,100.00
2018-07-26T02:53:50.895Z,100.00
2018-07-26T02:56:19.396Z,100.00
2018-07-26T02:58:47.853Z,100.00
2018-07-26T03:01:16.299Z,100.00
2018-07-26T03:03:44.796Z,100.00
2018-07-26T03:06:13.239Z,100.00
2018-07-26T03:08:41.976Z,100.00
2018-07-26T03:11:10.452Z,100.00
2018-07-26T03:13:38.915Z,100.00
2018-07-26T03:16:07.424Z,100.00
2018-07-26T03:18:35.908Z,100.00
2018-07-26T03:21:04.815Z,100.00
2018-07-26T03:23:33.232Z,100.00
2018-07-26T03:26:02.009Z,100.00
2018-07-26T03:28:30.436Z,100.00
2018-07-26T03:30:58.929Z,100.00
2018-07-26T03:33:27.411Z,100.00
2018-07-26T03:35:55.832Z,100.00
2018-07-26T03:38:24.262Z,100.00
2018-07-26T03:40:52.660Z,100.00
2018-07-26T03:43:21.143Z,100.00
2018-07-26T03:45:49.600Z,100.00
2018-07-26T03:48:18.055Z,100.00
2018-07-26T03:50:47.352Z,100.00
2018-07-26T03:53:16.051Z,100.00
2018-07-26T03:55:45.014Z,100.00
2018-07-26T03:58:13.452Z,100.00
2018-07-26T04:00:41.895Z,100.00
2018-07-26T04:03:10.380Z,100.00
2018-07-26T04:05:39.290Z,100.00
2018-07-26T04:08:07.840Z,100.00
2018-07-26T04:10:36.256Z,100.00
2018-07-26T04:13:04.820Z,100.00
2018-07-26T04:15:33.270Z,100.00
2018-07-26T04:18:05.047Z,100.00
2018-07-26T04:20:33.883Z,100.00
2018-07-26T04:23:02.431Z,100.00
2018-07-26T04:25:31.604Z,100.00
2018-07-26T04:28:00.255Z,100.00
2018-07-26T04:30:28.704Z,100.00
2018-07-26T04:32:57.395Z,100.00
2018-07-26T04:35:25.853Z,100.00
2018-07-26T04:37:54.503Z,100.00
2018-07-26T04:40:22.934Z,100.00
2018-07-26T04:42:51.444Z,100.00
2018-07-26T04:45:19.904Z,100.00
2018-07-26T04:47:48.368Z,100.00
2018-07-26T04:50:16.823Z,100.00
2018-07-26T04:52:45.298Z,100.00
2018-07-26T04:55:13.790Z,100.00
2018-07-26T04:57:42.215Z,100.00
2018-07-26T05:00:11.276Z,100.00
2018-07-26T05:02:39.985Z,100.00
2018-07-26T05:05:08.491Z,100.00
2018-07-26T05:07:36.991Z,100.00
2018-07-26T05:10:05.812Z,100.00
2018-07-26T05:12:36.801Z,100.00
2018-07-26T05:15:06.996Z,100.00
2018-07-26T05:17:35.736Z,100.00
2018-07-26T05:20:04.387Z,100.00
2018-07-26T05:22:32.837Z,100.00
2018-07-26T05:25:01.735Z,100.00
2018-07-26T05:27:30.570Z,100.00
2018-07-26T05:29:59.760Z,100.00
2018-07-26T05:32:28.567Z,100.00
2018-07-26T05:34:57.028Z,100.00
2018-07-26T05:37:25.530Z,100.00
2018-07-26T05:39:53.952Z,100.00
2018-07-26T05:42:22.396Z,100.00
2018-07-26T05:44:50.867Z,100.00
2018-07-26T05:47:19.361Z,100.00
2018-07-26T05:49:47.807Z,100.00
2018-07-26T05:52:16.852Z,100.00
2018-07-26T05:54:45.312Z,100.00
2018-07-26T05:57:14.048Z,100.00
2018-07-26T05:59:42.739Z,100.00
2018-07-26T06:02:12.005Z,100.00
2018-07-26T06:04:40.738Z,100.00
2018-07-26T06:07:09.650Z,100.00
2018-07-26T06:09:38.120Z,100.00
2018-07-26T06:12:07.079Z,100.00
2018-07-26T06:14:35.554Z,100.00
2018-07-26T06:17:04.117Z,100.00
2018-07-26T06:19:32.542Z,100.00
2018-07-26T06:22:00.988Z,100.00
2018-07-26T06:24:29.456Z,100.00
2018-07-26T06:26:58.101Z,100.00
2018-07-26T06:29:26.595Z,100.00
2018-07-26T06:31:55.372Z,100.00
2018-07-26T06:34:23.805Z,100.00
2018-07-26T06:36:52.468Z,100.00
2018-07-26T06:39:20.917Z,100.00
2018-07-26T06:41:49.383Z,100.00
2018-07-26T06:44:17.938Z,100.00
2018-07-26T06:46:46.599Z,100.00
2018-07-26T06:49:15.088Z,100.00
2018-07-26T06:51:43.490Z,100.00
2018-07-26T06:54:11.957Z,100.00
2018-07-26T06:56:40.371Z,100.00
2018-07-26T06:59:08.815Z,100.00
2018-07-26T07:01:38.064Z,100.00
2018-07-26T07:04:06.485Z,100.00
2018-07-26T07:06:34.983Z,100.00
2018-07-26T07:09:04.651Z,100.00
2018-07-26T07:11:33.099Z,100.00
2018-07-26T07:14:01.556Z,100.00
2018-07-26T07:16:30.228Z,100.00
2018-07-26T07:18:58.896Z,100.00
2018-07-26T07:21:27.359Z,100.00
2018-07-26T07:23:55.815Z,100.00
2018-07-26T07:26:24.361Z,100.00
2018-07-26T07:28:52.801Z,100.00
2018-07-26T07:31:22.238Z,100.00
2018-07-26T07:33:50.736Z,100.00
2018-07-26T07:36:19.165Z,100.00
2018-07-26T07:38:47.623Z,100.00
2018-07-26T07:41:16.054Z,100.00
2018-07-26T07:43:44.529Z,100.00
2018-07-26T07:46:12.956Z,100.00
2018-07-26T07:48:41.390Z,100.00
2018-07-26T07:51:09.838Z,100.00
2018-07-26T07:53:38.275Z,100.00
2018-07-26T07:56:06.980Z,100.00
2018-07-26T07:58:35.434Z,100.00
2018-07-26T08:01:03.844Z,100.00
2018-07-26T08:03:32.292Z,100.00
2018-07-26T08:06:01.457Z,100.00
2018-07-26T08:08:30.720Z,99.71
2018-07-26T08:10:59.142Z,97.42
2018-07-26T08:13:27.616Z,99.30
2018-07-26T08:15:56.107Z,98.75
2018-07-26T08:18:24.564Z,98.67
2018-07-26T08:20:53.012Z,95.34
2018-07-26T08:23:21.556Z,97.21
2018-07-26T08:25:50.011Z,96.93
2018-07-26T08:28:18.459Z,90.39
2018-07-26T08:30:46.900Z,92.08
2018-07-26T08:33:15.344Z,96.67
2018-07-26T08:35:43.798Z,91.86
2018-07-26T08:38:12.307Z,87.29
2018-07-26T08:40:41.055Z,92.81
2018-07-26T08:43:09.774Z,90.44
2018-07-26T08:45:38.248Z,85.72
2018-07-26T08:48:06.940Z,90.82
2018-07-26T08:50:35.355Z,88.25
2018-07-26T08:53:03.788Z,86.03
2018-07-26T08:55:32.263Z,83.43
2018-07-26T08:58:00.711Z,86.35
2018-07-26T09:00:29.201Z,80.18
2018-07-26T09:02:57.635Z,83.62
2018-07-26T09:05:26.083Z,80.98
2018-07-26T09:07:54.539Z,83.14
2018-07-26T09:10:23.035Z,83.98
2018-07-26T09:12:51.486Z,79.66
2018-07-26T09:15:20.234Z,80.09
2018-07-26T09:17:48.685Z,79.36
2018-07-26T09:20:17.323Z,77.42
2018-07-26T09:22:45.799Z,78.75
2018-07-26T09:25:14.273Z,76.66
2018-07-26T09:27:42.690Z,72.97
2018-07-26T09:30:11.682Z,72.08
2018-07-26T09:32:40.163Z,72.65
2018-07-26T09:35:09.168Z,69.62
2018-07-26T09:37:37.603Z,72.36
2018-07-26T09:40:06.060Z,69.90
2018-07-26T09:42:34.539Z,68.91
2018-07-26T09:45:03.271Z,71.29
2018-07-26T09:47:31.965Z,70.66
2018-07-26T09:50:00.418Z,67.77
2018-07-26T09:52:28.859Z,63.13
2018-07-26T09:54:57.337Z,65.51
2018-07-26T09:57:25.798Z,66.16
2018-07-26T09:59:54.229Z,66.88
2018-07-26T10:02:22.735Z,65.71
2018-07-26T10:04:51.148Z,64.71
2018-07-26T10:07:19.645Z,64.24
2018-07-26T10:09:48.307Z,64.04
2018-07-26T10:12:16.698Z,62.44
2018-07-26T10:14:45.152Z,60.08
2018-07-26T10:17:13.612Z,60.23
2018-07-26T10:19:42.092Z,59.10
2018-07-26T10:22:10.540Z,62.59
2018-07-26T10:24:39.036Z,62.01
2018-07-26T10:27:07.569Z,62.68
2018-07-26T10:29:36.011Z,61.15
2018-07-26T10:32:04.478Z,61.70
2018-07-26T10:34:32.936Z,64.05
2018-07-26T10:37:01.607Z,58.61
2018-07-26T10:39:30.091Z,55.38
2018-07-26T10:41:58.532Z,56.33
2018-07-26T10:44:27.526Z,57.00
2018-07-26T10:46:55.932Z,55.67
2018-07-26T10:49:24.396Z,53.72
2018-07-26T10:51:52.876Z,58.43
2018-07-26T10:54:21.309Z,60.61
2018-07-26T10:56:49.726Z,54.20
2018-07-26T10:59:18.175Z,49.89
2018-07-26T11:01:46.994Z,53.80
2018-07-26T11:04:15.447Z,50.96
2018-07-26T11:06:43.865Z,51.38
2018-07-26T11:09:12.307Z,54.48
2018-07-26T11:11:40.763Z,55.49
2018-07-26T11:14:09.564Z,56.40
2018-07-26T11:16:38.300Z,54.11
2018-07-26T11:19:06.726Z,50.65
2018-07-26T11:21:35.187Z,53.94
2018-07-26T11:24:03.627Z,55.19
2018-07-26T11:26:32.131Z,55.71
2018-07-26T11:29:01.001Z,56.63
2018-07-26T11:31:29.441Z,52.96
2018-07-26T11:33:57.869Z,50.51
2018-07-26T11:36:26.331Z,50.64
2018-07-26T11:38:54.778Z,51.28
2018-07-26T11:41:23.248Z,50.31
2018-07-26T11:43:51.680Z,48.51
2018-07-26T11:46:20.134Z,46.08
2018-07-26T11:48:48.571Z,47.09
2018-07-26T11:51:17.003Z,47.04
2018-07-26T11:53:45.579Z,49.39
2018-07-26T11:56:13.990Z,51.46
2018-07-26T11:58:42.462Z,45.33
2018-07-26T12:01:10.925Z,47.01
2018-07-26T12:03:39.368Z,47.16
2018-07-26T12:06:07.892Z,54.36
2018-07-26T12:08:36.355Z,53.87
2018-07-26T12:11:04.801Z,56.46
2018-07-26T12:13:33.247Z,52.75
2018-07-26T12:16:01.703Z,57.22
2018-07-26T12:18:30.163Z,57.05
2018-07-26T12:20:58.569Z,54.45
2018-07-26T12:23:27.077Z,54.46
2018-07-26T12:25:55.560Z,57.24
2018-07-26T12:28:23.976Z,56.86
2018-07-26T12:30:52.454Z,59.52
2018-07-26T12:33:20.894Z,65.43
2018-07-26T12:35:49.333Z,70.21
2018-07-26T12:38:17.810Z,74.64
2018-07-26T12:40:46.262Z,85.22
2018-07-26T12:43:14.724Z,88.73
2018-07-26T12:45:43.159Z,93.36
2018-07-26T12:48:11.832Z,89.24
2018-07-26T12:50:40.503Z,95.23
2018-07-26T12:53:09.020Z,92.68
2018-07-26T12:55:37.436Z,93.97
2018-07-26T12:58:05.911Z,95.05
2018-07-26T13:00:34.723Z,91.77
2018-07-26T13:03:03.176Z,88.52
2018-07-26T13:05:31.832Z,82.69
2018-07-26T13:08:00.253Z,90.15
2018-07-26T13:10:28.775Z,89.71
2018-07-26T13:12:57.228Z,87.24
2018-07-26T13:15:25.652Z,84.79
2018-07-26T13:17:55.009Z,88.05
2018-07-26T13:20:23.743Z,86.98
2018-07-26T13:22:52.551Z,85.55
2018-07-26T13:25:20.953Z,83.49
2018-07-26T13:27:49.403Z,81.01
2018-07-26T13:30:17.824Z,72.27
2018-07-26T13:32:46.274Z,65.06
2018-07-26T13:35:14.703Z,71.70
2018-07-26T13:37:43.194Z,64.95
2018-07-26T13:40:11.733Z,61.01
2018-07-26T13:42:40.182Z,60.10
2018-07-26T13:45:09.452Z,53.19
2018-07-26T13:47:38.426Z,58.44
2018-07-26T13:50:07.346Z,54.19
2018-07-26T13:52:35.817Z,51.80
2018-07-26T13:55:04.547Z,52.19
2018-07-26T13:57:33.270Z,50.61
2018-07-26T14:00:01.692Z,50.83
2018-07-26T14:02:30.341Z,50.80
2018-07-26T14:04:58.785Z,55.11
2018-07-26T14:07:27.199Z,57.08
2018-07-26T14:09:55.684Z,64.17
2018-07-26T14:12:24.115Z,60.62
2018-07-26T14:14:52.849Z,67.58
2018-07-26T14:17:21.391Z,66.40
2018-07-26T14:19:49.871Z,69.14
2018-07-26T14:22:18.376Z,71.54
2018-07-26T14:24:46.751Z,73.56
2018-07-26T14:27:15.272Z,76.72
2018-07-26T14:29:43.688Z,77.02
2018-07-26T14:32:12.161Z,78.79
2018-07-26T14:34:40.558Z,79.30
2018-07-26T14:37:09.036Z,84.73
2018-07-26T14:39:37.458Z,84.31
2018-07-26T14:42:05.938Z,88.67
2018-07-26T14:44:34.417Z,84.42
2018-07-26T14:47:02.858Z,82.75
2018-07-26T14:49:31.260Z,82.62
2018-07-26T14:51:59.671Z,79.37
2018-07-26T14:54:28.113Z,84.85
2018-07-26T14:56:56.581Z,79.15
2018-07-26T14:59:25.250Z,80.45
2018-07-26T15:01:54.032Z,78.04
2018-07-26T15:04:22.477Z,81.95
2018-07-26T15:06:50.931Z,79.95
2018-07-26T15:09:19.402Z,81.46
2018-07-26T15:11:48.348Z,78.86
2018-07-26T15:14:17.345Z,79.27
2018-07-26T15:16:47.272Z,76.12
2018-07-26T15:19:15.681Z,80.08
2018-07-26T15:21:44.111Z,79.36
2018-07-26T15:24:12.566Z,75.53
2018-07-26T15:26:41.002Z,75.36
2018-07-26T15:29:09.451Z,73.95
2018-07-26T15:31:38.040Z,73.74
2018-07-26T15:34:06.532Z,73.23
2018-07-26T15:36:35.008Z,74.08
2018-07-26T15:39:03.995Z,72.33
2018-07-26T15:42:35.287Z,62.08
2018-07-26T15:45:04.089Z,62.01
2018-07-26T15:47:32.714Z,63.31
2018-07-26T15:50:01.169Z,61.55
2018-07-26T15:52:29.644Z,64.84
2018-07-26T15:54:58.080Z,58.87
2018-07-26T15:57:26.565Z,57.88
2018-07-26T15:59:55.016Z,54.82
2018-07-26T16:02:23.470Z,53.71
2018-07-26T16:04:52.005Z,58.56
2018-07-26T16:07:20.634Z,59.93
2018-07-26T16:09:49.323Z,57.25
2018-07-26T16:12:17.826Z,59.69
2018-07-26T16:14:46.213Z,65.27
2018-07-26T16:17:14.695Z,66.07
2018-07-26T16:19:43.366Z,67.02
2018-07-26T16:22:12.075Z,61.59
2018-07-26T16:24:41.229Z,61.88
2018-07-26T16:27:09.712Z,58.51
2018-07-26T16:29:38.179Z,59.23
2018-07-26T16:32:07.071Z,57.35
2018-07-26T16:34:35.605Z,51.85
2018-07-26T16:37:04.088Z,52.87
2018-07-26T16:39:32.555Z,51.50
2018-07-26T16:42:01.264Z,50.08
2018-07-26T16:44:29.754Z,50.85
2018-07-26T16:46:58.484Z,52.56
2018-07-26T16:49:26.939Z,52.72
2018-07-26T16:51:55.522Z,49.36
2018-07-26T16:54:23.963Z,43.97
2018-07-26T16:56:52.456Z,44.26
2018-07-26T16:59:21.004Z,45.33
2018-07-26T17:01:49.759Z,46.79
2018-07-26T17:04:18.412Z,49.14
2018-07-26T17:06:47.345Z,48.19
2018-07-26T17:09:15.792Z,47.35
2018-07-26T17:11:44.252Z,51.71
2018-07-26T17:14:12.684Z,55.08
2018-07-26T17:16:41.416Z,56.64
2018-07-26T17:19:09.928Z,57.27
2018-07-26T17:21:38.372Z,60.48
2018-07-26T17:24:07.209Z,60.99
2018-07-26T17:26:40.936Z,59.02
2018-07-26T17:29:09.434Z,58.95
2018-07-26T17:31:37.894Z,59.79
2018-07-26T17:34:21.310Z,59.28
2018-07-26T17:36:49.831Z,57.56
2018-07-26T17:39:18.458Z,65.76
2018-07-26T17:41:46.947Z,62.47
2018-07-26T17:44:15.455Z,64.12
2018-07-26T17:46:44.266Z,66.29
2018-07-26T17:49:12.922Z,68.33
2018-07-26T17:51:41.347Z,70.16
2018-07-26T17:54:09.769Z,71.06
2018-07-26T17:56:38.386Z,73.88
2018-07-26T17:59:07.205Z,73.35
2018-07-26T18:01:36.657Z,74.05
2018-07-26T18:04:05.141Z,75.21
2018-07-26T18:06:34.447Z,77.92
2018-07-26T18:09:03.099Z,78.79
2018-07-26T18:11:31.723Z,77.89
2018-07-26T18:14:00.432Z,79.98
2018-07-26T18:16:29.816Z,80.97
2018-07-26T18:18:58.403Z,82.31
2018-07-26T18:21:26.892Z,81.58
2018-07-26T18:23:55.916Z,80.86
2018-07-26T18:26:24.391Z,81.50
2018-07-26T18:28:52.854Z,79.65
2018-07-26T18:31:21.374Z,81.65
2018-07-26T18:33:55.986Z,82.53
2018-07-26T18:36:24.679Z,83.59
2018-07-26T18:38:53.184Z,82.64
2018-07-26T18:41:21.626Z,83.52
2018-07-26T18:43:50.231Z,85.06
2018-07-26T18:46:18.709Z,86.56
2018-07-26T18:48:47.174Z,84.06
2018-07-26T18:51:15.608Z,85.73
2018-07-26T18:53:44.077Z,86.16
2018-07-26T18:56:12.552Z,89.20
2018-07-26T18:58:41.271Z,88.70
2018-07-26T19:01:09.745Z,89.46
2018-07-26T19:03:38.159Z,89.62
2018-07-26T19:06:06.743Z,88.53
2018-07-26T19:08:35.292Z,88.42
2018-07-26T19:11:03.747Z,88.29
2018-07-26T19:13:32.289Z,87.59
2018-07-26T19:16:00.786Z,86.42
2018-07-26T19:18:29.234Z,87.43
2018-07-26T19:20:57.914Z,86.09
2018-07-26T19:23:26.351Z,85.85
2018-07-26T19:25:55.151Z,84.58
2018-07-26T19:28:23.642Z,88.01
2018-07-26T19:30:52.147Z,87.94
2018-07-26T19:33:20.642Z,87.85
2018-07-26T19:35:49.898Z,88.99
2018-07-26T19:38:18.511Z,88.67
2018-07-26T19:40:46.936Z,89.74
2018-07-26T19:43:15.481Z,89.50
2018-07-26T19:45:43.947Z,90.36
2018-07-26T19:48:12.371Z,90.79
2018-07-26T19:50:40.882Z,89.98
2018-07-26T19:53:09.492Z,96.27
2018-07-26T19:55:37.923Z,94.51
2018-07-26T19:58:06.434Z,95.34
2018-07-26T20:00:34.911Z,93.52
2018-07-26T20:03:03.334Z,95.28
2018-07-26T20:05:31.778Z,96.12
2018-07-26T20:08:00.167Z,96.24
2018-07-26T20:10:28.608Z,95.83
2018-07-26T20:12:57.112Z,98.19
2018-07-26T20:15:25.552Z,100.00
2018-07-26T20:17:54.038Z,100.00
2018-07-26T20:20:22.471Z,99.47
2018-07-26T20:22:50.881Z,99.71
2018-07-26T20:25:19.353Z,100.00
2018-07-26T20:27:48.213Z,100.00
2018-07-26T20:30:16.823Z,100.00
2018-07-26T20:32:45.440Z,100.00
2018-07-26T20:35:13.967Z,100.00
2018-07-26T20:37:42.528Z,100.00
2018-07-26T20:40:11.695Z,100.00
2018-07-26T20:42:40.478Z,100.00
2018-07-26T20:45:10.794Z,100.00
2018-07-26T20:47:39.465Z,100.00
2018-07-26T20:50:08.999Z,100.00
2018-07-26T20:52:38.036Z,100.00
2018-07-26T20:55:06.843Z,100.00
2018-07-26T20:57:35.539Z,100.00
2018-07-26T21:00:04.742Z,100.00
2018-07-26T21:02:33.421Z,100.00
2018-07-26T21:05:01.848Z,100.00
2018-07-26T21:07:30.296Z,100.00
2018-07-26T21:09:58.719Z,100.00
2018-07-26T21:12:27.228Z,100.00
2018-07-26T21:14:55.990Z,100.00
2018-07-26T21:17:24.488Z,100.00
2018-07-26T21:19:52.913Z,100.00
2018-07-26T21:22:21.316Z,100.00
2018-07-26T21:24:49.931Z,100.00
2018-07-26T21:27:18.468Z,100.00
2018-07-26T21:29:46.963Z,100.00
2018-07-26T21:32:15.356Z,100.00
2018-07-26T21:34:43.815Z,100.00
2018-07-26T21:37:12.257Z,100.00
2018-07-26T21:39:40.657Z,100.00
2018-07-26T21:42:09.173Z,100.00
2018-07-26T21:44:38.073Z,100.00
2018-07-26T21:47:06.528Z,100.00
2018-07-26T21:49:34.980Z,100.00
2018-07-26T21:52:03.440Z,100.00
2018-07-26T21:54:31.925Z,100.00
2018-07-26T21:57:00.810Z,100.00
2018-07-26T21:59:29.450Z,100.00
2018-07-26T22:01:57.906Z,100.00
2018-07-26T22:04:26.419Z,100.00
2018-07-26T22:06:55.136Z,100.00
2018-07-26T22:09:23.698Z,100.00
2018-07-26T22:11:52.134Z,100.00
2018-07-26T22:14:20.608Z,100.00
2018-07-26T22:16:49.078Z,100.00
2018-07-26T22:19:17.599Z,100.00
2018-07-26T22:21:46.299Z,100.00
2018-07-26T22:24:14.732Z,100.00
2018-07-26T22:26:43.447Z,100.00
2018-07-26T22:29:11.953Z,100.00
2018-07-26T22:31:40.404Z,100.00
2018-07-26T22:34:09.271Z,100.00
2018-07-26T22:36:37.731Z,100.00
2018-07-26T22:39:07.922Z,100.00
2018-07-26T22:41:36.320Z,100.00
2018-07-26T22:44:05.032Z,100.00
2018-07-26T22:46:33.740Z,100.00
2018-07-26T22:49:02.180Z,100.00
2018-07-26T22:51:30.703Z,100.00
2018-07-26T22:53:59.167Z,100.00
2018-07-26T22:56:27.636Z,100.00
2018-07-26T22:58:56.135Z,100.00
2018-07-26T23:01:24.716Z,100.00
2018-07-26T23:03:53.393Z,100.00
2018-07-26T23:06:21.851Z,100.00
2018-07-26T23:08:50.271Z,100.00
2018-07-26T23:11:18.778Z,100.00
2018-07-26T23:13:47.216Z,100.00
2018-07-26T23:16:15.689Z,100.00
2018-07-26T23:18:44.536Z,100.00
2018-07-26T23:21:13.003Z,100.00
2018-07-26T23:23:41.603Z,100.00
2018-07-26T23:26:10.143Z,100.00
2018-07-26T23:28:38.887Z,100.00
2018-07-26T23:31:07.483Z,100.00
2018-07-26T23:33:35.949Z,100.00
2018-07-26T23:36:04.459Z,100.00
2018-07-26T23:38:32.959Z,100.00
2018-07-26T23:41:01.412Z,100.00
2018-07-26T23:43:29.892Z,100.00
2018-07-26T23:45:58.363Z,100.00
2018-07-26T23:48:26.837Z,100.00
2018-07-26T23:50:55.684Z,100.00
2018-07-26T23:53:24.187Z,100.00
2018-07-26T23:55:52.768Z,100.00
2018-07-26T23:58:21.248Z,100.00
